createdAt,value
2022-10-07T00:00:35.664Z,16.80
2022-10-07T00:01:35.715Z,16.40
2022-10-07T00:02:35.702Z,22.70
2022-10-07T00:03:35.640Z,18.30
2022-10-07T00:04:35.628Z,19.20
2022-10-07T00:05:35.619Z,20.00
2022-10-07T00:06:35.644Z,17.70
2022-10-07T00:07:35.613Z,16.80
2022-10-07T00:08:35.593Z,21.10
2022-10-07T00:09:35.589Z,17.20
2022-10-07T00:10:36.580Z,21.30
2022-10-07T00:11:35.577Z,19.00
2022-10-07T00:12:35.538Z,18.40
2022-10-07T00:13:35.536Z,20.80
2022-10-07T00:14:35.530Z,22.90
2022-10-07T00:15:35.518Z,18.90
2022-10-07T00:16:35.545Z,18.80
2022-10-07T00:17:35.502Z,19.70
2022-10-07T00:18:35.488Z,20.00
2022-10-07T00:19:35.484Z,15.90
2022-10-07T00:20:35.465Z,22.80
2022-10-07T00:21:35.469Z,18.50
2022-10-07T00:22:35.444Z,24.50
2022-10-07T00:23:35.431Z,19.40
2022-10-07T00:24:35.444Z,19.50
2022-10-07T00:25:35.413Z,18.80
2022-10-07T00:26:35.419Z,21.00
2022-10-07T00:27:35.391Z,17.00
2022-10-07T00:28:35.444Z,19.40
2022-10-07T00:29:35.370Z,19.90
2022-10-07T00:30:35.403Z,14.90
2022-10-07T00:31:35.363Z,18.60
2022-10-07T00:32:35.334Z,22.40
2022-10-07T00:33:35.318Z,18.60
2022-10-07T00:34:35.309Z,16.40
2022-10-07T00:35:35.204Z,19.20
2022-10-07T00:36:35.266Z,22.80
2022-10-07T00:37:35.175Z,21.40
2022-10-07T00:38:35.131Z,17.40
2022-10-07T00:39:35.131Z,20.00
2022-10-07T00:40:35.107Z,18.00
2022-10-07T00:41:35.113Z,23.60
2022-10-07T00:42:35.098Z,20.50
2022-10-07T00:43:35.072Z,17.30
2022-10-07T00:44:35.061Z,16.90
2022-10-07T00:45:35.079Z,22.10
2022-10-07T00:46:35.062Z,19.60
2022-10-07T00:47:35.031Z,15.10
2022-10-07T00:48:35.006Z,15.80
2022-10-07T00:49:35.010Z,15.60
2022-10-07T00:50:34.995Z,17.80
2022-10-07T00:51:35.005Z,16.20
2022-10-07T00:52:34.980Z,23.10
2022-10-07T00:53:34.962Z,18.60
2022-10-07T00:54:34.963Z,21.20
2022-10-07T00:55:34.937Z,18.00
2022-10-07T00:56:34.934Z,20.90
2022-10-07T00:57:34.909Z,19.30
2022-10-07T00:58:34.900Z,16.80
2022-10-07T00:59:34.886Z,20.90
2022-10-07T01:00:34.871Z,20.80
2022-10-07T01:01:34.940Z,17.50
2022-10-07T01:02:34.952Z,20.80
2022-10-07T01:03:34.846Z,18.90
2022-10-07T01:04:34.838Z,17.90
2022-10-07T01:05:34.825Z,17.60
2022-10-07T01:06:34.831Z,21.90
2022-10-07T01:07:34.819Z,17.80
2022-10-07T01:08:34.790Z,20.00
2022-10-07T01:09:34.777Z,16.40
2022-10-07T01:10:34.759Z,15.50
2022-10-07T01:11:34.770Z,20.20
2022-10-07T01:12:34.732Z,21.70
2022-10-07T01:13:34.738Z,21.70
2022-10-07T01:14:34.723Z,22.50
2022-10-07T01:15:34.709Z,19.40
2022-10-07T01:16:34.800Z,20.80
2022-10-07T01:17:34.693Z,18.30
2022-10-07T01:18:34.682Z,20.50
2022-10-07T01:19:34.688Z,17.30
2022-10-07T01:20:34.658Z,20.10
2022-10-07T01:21:34.669Z,20.20
2022-10-07T01:22:34.638Z,17.80
2022-10-07T01:23:34.631Z,22.00
2022-10-07T01:24:34.615Z,18.80
2022-10-07T01:25:34.600Z,19.80
2022-10-07T01:26:34.612Z,20.00
2022-10-07T01:27:34.588Z,18.80
2022-10-07T01:28:34.605Z,20.70
2022-10-07T01:29:34.569Z,21.00
2022-10-07T01:30:34.608Z,26.70
2022-10-07T01:31:34.582Z,18.30
2022-10-07T01:32:34.522Z,21.10
2022-10-07T01:33:34.507Z,21.60
2022-10-07T01:34:34.499Z,21.00
2022-10-07T01:35:34.495Z,22.00
2022-10-07T01:36:34.500Z,22.90
2022-10-07T01:37:34.471Z,21.70
2022-10-07T01:38:34.462Z,22.60
2022-10-07T01:39:34.451Z,19.20
2022-10-07T01:40:34.432Z,23.00
2022-10-07T01:41:34.446Z,18.40
2022-10-07T01:42:34.418Z,18.60
2022-10-07T01:43:34.399Z,21.90
2022-10-07T01:44:34.389Z,20.10
2022-10-07T01:45:34.382Z,22.60
2022-10-07T01:46:34.428Z,21.40
2022-10-07T01:47:34.355Z,20.10
2022-10-07T01:48:34.346Z,23.30
2022-10-07T01:49:34.431Z,19.90
2022-10-07T01:50:34.321Z,17.80
2022-10-07T01:51:34.327Z,23.80
2022-10-07T01:52:34.294Z,20.10
2022-10-07T01:53:34.289Z,24.50
2022-10-07T01:54:34.276Z,24.50
2022-10-07T01:55:34.255Z,22.60
2022-10-07T01:56:34.273Z,24.40
2022-10-07T01:57:34.243Z,17.40
2022-10-07T01:58:34.239Z,20.60
2022-10-07T01:59:34.217Z,17.70
2022-10-07T02:00:34.206Z,19.40
2022-10-07T02:01:34.271Z,22.20
2022-10-07T02:02:34.178Z,20.20
2022-10-07T02:03:34.248Z,22.30
2022-10-07T02:04:34.166Z,21.30
2022-10-07T02:05:34.322Z,21.50
2022-10-07T02:06:34.165Z,21.20
2022-10-07T02:07:34.134Z,26.30
2022-10-07T02:08:34.124Z,24.90
2022-10-07T02:09:34.113Z,22.20
2022-10-07T02:10:34.089Z,19.30
2022-10-07T02:11:34.122Z,21.00
2022-10-07T02:12:34.083Z,17.70
2022-10-07T02:13:34.071Z,24.20
2022-10-07T02:14:34.043Z,23.80
2022-10-07T02:15:34.052Z,19.00
2022-10-07T02:16:34.050Z,22.00
2022-10-07T02:17:34.025Z,21.80
2022-10-07T02:18:33.998Z,20.40
2022-10-07T02:19:34.001Z,17.70
2022-10-07T02:20:33.994Z,21.50
2022-10-07T02:21:33.990Z,20.90
2022-10-07T02:22:33.960Z,21.30
2022-10-07T02:23:33.958Z,20.70
2022-10-07T02:24:33.947Z,18.30
2022-10-07T02:25:33.933Z,22.20
2022-10-07T02:26:33.926Z,28.60
2022-10-07T02:27:33.913Z,19.60
2022-10-07T02:28:33.974Z,24.20
2022-10-07T02:29:33.893Z,23.80
2022-10-07T02:30:33.878Z,22.50
2022-10-07T02:31:33.988Z,22.50
2022-10-07T02:32:33.860Z,22.90
2022-10-07T02:33:33.843Z,21.20
2022-10-07T02:34:33.828Z,21.60
2022-10-07T02:35:33.827Z,19.30
2022-10-07T02:36:33.833Z,24.40
2022-10-07T02:37:33.849Z,19.20
2022-10-07T02:38:33.789Z,23.20
2022-10-07T02:39:33.783Z,21.70
2022-10-07T02:40:33.769Z,18.90
2022-10-07T02:41:33.780Z,17.20
2022-10-07T02:42:33.736Z,18.00
2022-10-07T02:43:33.738Z,20.10
2022-10-07T02:44:33.727Z,17.80
2022-10-07T02:45:33.712Z,23.10
2022-10-07T02:46:33.755Z,22.40
2022-10-07T02:47:33.693Z,23.50
2022-10-07T02:48:33.677Z,16.20
2022-10-07T02:49:33.669Z,21.20
2022-10-07T02:50:33.656Z,17.60
2022-10-07T02:51:33.670Z,22.00
2022-10-07T02:52:33.642Z,16.90
2022-10-07T02:53:33.631Z,17.40
2022-10-07T02:54:33.620Z,22.50
2022-10-07T02:55:33.634Z,21.20
2022-10-07T02:56:33.624Z,15.30
2022-10-07T02:57:33.625Z,19.90
2022-10-07T02:58:33.582Z,21.50
2022-10-07T02:59:33.570Z,21.00
2022-10-07T03:00:33.577Z,19.70
2022-10-07T03:01:33.607Z,21.00
2022-10-07T03:02:33.535Z,17.70
2022-10-07T03:03:33.574Z,17.10
2022-10-07T03:04:33.521Z,16.60
2022-10-07T03:05:33.509Z,16.50
2022-10-07T03:06:33.505Z,26.00
2022-10-07T03:07:33.487Z,16.00
2022-10-07T03:08:33.485Z,18.60
2022-10-07T03:09:33.463Z,14.90
2022-10-07T03:10:33.452Z,21.40
2022-10-07T03:11:33.459Z,18.10
2022-10-07T03:12:33.435Z,20.90
2022-10-07T03:13:33.428Z,17.50
2022-10-07T03:14:33.416Z,16.50
2022-10-07T03:15:33.604Z,17.80
2022-10-07T03:16:33.520Z,22.00
2022-10-07T03:17:33.385Z,20.00
2022-10-07T03:18:33.394Z,17.30
2022-10-07T03:19:33.362Z,18.40
2022-10-07T03:20:33.350Z,15.70
2022-10-07T03:21:33.362Z,16.90
2022-10-07T03:22:33.332Z,17.80
2022-10-07T03:23:33.313Z,17.40
2022-10-07T03:24:33.311Z,18.70
2022-10-07T03:25:33.421Z,16.40
2022-10-07T03:26:33.315Z,17.20
2022-10-07T03:27:33.279Z,18.10
2022-10-07T03:28:33.363Z,15.80
2022-10-07T03:29:33.261Z,16.60
2022-10-07T03:30:33.241Z,22.30
2022-10-07T03:31:33.311Z,13.70
2022-10-07T03:32:33.231Z,16.20
2022-10-07T03:33:33.210Z,15.00
2022-10-07T03:34:33.208Z,22.10
2022-10-07T03:35:33.195Z,16.10
2022-10-07T03:36:33.201Z,18.00
2022-10-07T03:37:33.176Z,13.80
2022-10-07T03:38:33.165Z,15.80
2022-10-07T03:39:33.175Z,43.70
2022-10-07T03:40:33.149Z,118.00
2022-10-07T03:41:33.285Z,95.30
2022-10-07T03:42:33.130Z,363.80
2022-10-07T03:43:33.119Z,219.50
2022-10-07T03:44:33.113Z,149.90
2022-10-07T03:45:33.092Z,70.50
2022-10-07T03:46:33.148Z,48.20
2022-10-07T03:47:33.079Z,180.10
2022-10-07T03:48:33.070Z,238.50
2022-10-07T03:49:33.059Z,83.90
2022-10-07T03:50:33.044Z,117.30
2022-10-07T03:51:33.083Z,259.80
2022-10-07T03:52:33.029Z,20.90
2022-10-07T03:53:33.018Z,33.60
2022-10-07T03:54:33.010Z,97.60
2022-10-07T03:55:33.000Z,58.10
2022-10-07T03:56:33.011Z,18.50
2022-10-07T03:57:32.977Z,29.90
2022-10-07T03:58:32.971Z,38.70
2022-10-07T03:59:32.963Z,24.30
2022-10-07T04:00:32.950Z,19.10
2022-10-07T04:01:33.004Z,19.40
2022-10-07T04:02:32.940Z,18.10
2022-10-07T04:03:32.941Z,18.10
2022-10-07T04:04:32.916Z,27.10
2022-10-07T04:05:32.903Z,79.80
2022-10-07T04:06:32.904Z,101.70
2022-10-07T04:07:32.881Z,104.30
2022-10-07T04:08:33.035Z,92.60
2022-10-07T04:09:32.861Z,398.60
2022-10-07T04:10:32.857Z,332.30
2022-10-07T04:11:32.863Z,159.60
2022-10-07T04:12:32.833Z,171.70
2022-10-07T04:13:32.827Z,383.60
2022-10-07T04:14:32.843Z,262.70
2022-10-07T04:15:32.808Z,339.80
2022-10-07T04:16:37.147Z,404.40
2022-10-07T04:17:34.793Z,402.60
2022-10-07T04:18:32.780Z,318.00
2022-10-07T04:19:32.769Z,430.60
2022-10-07T04:20:32.759Z,264.30
2022-10-07T04:21:32.776Z,67.20
2022-10-07T04:22:32.743Z,155.80
2022-10-07T04:23:32.723Z,356.20
2022-10-07T04:24:32.722Z,519.00
2022-10-07T04:25:32.712Z,83.70
2022-10-07T04:26:32.710Z,646.80
2022-10-07T04:27:50.789Z,339.60
2022-10-07T04:28:34.930Z,164.70
2022-10-07T04:29:38.115Z,155.40
2022-10-07T04:30:34.679Z,92.40
2022-10-07T04:31:32.759Z,107.60
2022-10-07T04:32:32.659Z,214.90
2022-10-07T04:33:32.641Z,287.50
2022-10-07T04:34:32.631Z,289.20
2022-10-07T04:35:32.620Z,111.70
2022-10-07T04:36:32.642Z,119.80
2022-10-07T04:37:32.609Z,408.90
2022-10-07T04:38:32.605Z,102.70
2022-10-07T04:39:56.059Z,33.90
2022-10-07T04:40:34.579Z,26.30
2022-10-07T04:41:32.591Z,20.60
2022-10-07T04:42:32.558Z,18.60
2022-10-07T04:43:32.553Z,19.00
2022-10-07T04:44:32.530Z,21.70
2022-10-07T04:45:32.526Z,25.10
2022-10-07T04:46:32.586Z,16.80
2022-10-07T04:47:32.511Z,21.30
2022-10-07T04:48:32.501Z,18.00
2022-10-07T04:49:32.496Z,16.20
2022-10-07T04:50:32.495Z,30.30
2022-10-07T04:51:32.496Z,18.20
2022-10-07T04:52:32.469Z,56.10
2022-10-07T04:53:32.460Z,36.60
2022-10-07T04:54:32.449Z,48.20
2022-10-07T04:55:32.437Z,73.80
2022-10-07T04:56:32.469Z,339.30
2022-10-07T04:57:32.421Z,222.70
2022-10-07T04:58:32.409Z,28.70
2022-10-07T04:59:34.309Z,38.50
2022-10-07T05:01:04.840Z,20.40
2022-10-07T05:01:32.395Z,31.90
2022-10-07T05:02:33.414Z,16.80
2022-10-07T05:03:32.367Z,56.50
2022-10-07T05:04:32.351Z,34.60
2022-10-07T05:05:32.346Z,341.90
2022-10-07T05:06:32.342Z,56.90
2022-10-07T05:07:32.331Z,71.80
2022-10-07T05:08:32.320Z,241.70
2022-10-07T05:09:32.309Z,144.20
2022-10-07T05:10:32.285Z,27.60
2022-10-07T05:11:32.312Z,242.50
2022-10-07T05:12:32.288Z,233.90
2022-10-07T05:13:32.272Z,28.70
2022-10-07T05:14:32.247Z,25.60
2022-10-07T05:15:32.302Z,211.80
2022-10-07T05:16:32.499Z,64.70
2022-10-07T05:17:32.242Z,30.10
2022-10-07T05:18:32.228Z,126.40
2022-10-07T05:19:32.219Z,118.90
2022-10-07T05:20:32.202Z,74.50
2022-10-07T05:21:32.191Z,220.50
2022-10-07T05:22:32.201Z,264.50
2022-10-07T05:23:32.178Z,83.60
2022-10-07T05:24:32.171Z,59.50
2022-10-07T05:25:32.162Z,81.50
2022-10-07T05:26:32.146Z,27.70
2022-10-07T05:27:32.157Z,57.80
2022-10-07T05:28:32.221Z,43.10
2022-10-07T05:29:32.155Z,59.40
2022-10-07T05:30:32.104Z,30.60
2022-10-07T05:31:32.134Z,257.90
2022-10-07T05:32:32.209Z,46.40
2022-10-07T05:33:32.075Z,89.80
2022-10-07T05:34:32.052Z,34.30
2022-10-07T05:35:32.058Z,20.00
2022-10-07T05:36:32.057Z,28.00
2022-10-07T05:37:32.058Z,34.70
2022-10-07T05:38:32.021Z,40.50
2022-10-07T05:39:32.020Z,34.10
2022-10-07T05:40:32.013Z,32.00
2022-10-07T05:41:31.999Z,56.60
2022-10-07T05:42:32.003Z,36.70
2022-10-07T05:43:31.982Z,36.70
2022-10-07T05:44:31.973Z,42.40
2022-10-07T05:45:32.020Z,19.90
2022-10-07T05:46:31.955Z,99.70
2022-10-07T05:47:31.969Z,88.30
2022-10-07T05:48:36.678Z,100.10
2022-10-07T05:49:33.925Z,34.10
2022-10-07T05:50:31.921Z,28.10
2022-10-07T05:51:31.920Z,137.10
2022-10-07T05:52:31.922Z,17.30
2022-10-07T05:53:31.899Z,184.70
2022-10-07T05:54:31.892Z,20.10
2022-10-07T05:55:33.838Z,43.80
2022-10-07T05:56:31.863Z,173.90
2022-10-07T05:57:31.878Z,220.90
2022-10-07T05:58:31.851Z,318.30
2022-10-07T05:59:31.837Z,313.50
2022-10-07T06:00:31.834Z,204.00
2022-10-07T06:01:31.815Z,286.20
2022-10-07T06:02:31.947Z,269.30
2022-10-07T06:03:31.803Z,159.20
2022-10-07T06:04:31.795Z,270.10
2022-10-07T06:05:31.773Z,321.70
2022-10-07T06:06:31.850Z,35.40
2022-10-07T06:07:31.786Z,75.50
2022-10-07T06:08:31.755Z,32.20
2022-10-07T06:09:31.737Z,164.00
2022-10-07T06:10:31.740Z,208.20
2022-10-07T06:11:31.732Z,266.70
2022-10-07T06:12:31.744Z,60.70
2022-10-07T06:13:31.713Z,63.40
2022-10-07T06:14:31.698Z,365.80
2022-10-07T06:15:31.692Z,303.90
2022-10-07T06:16:31.748Z,30.80
2022-10-07T06:17:31.719Z,64.60
2022-10-07T06:18:31.676Z,113.50
2022-10-07T06:19:31.669Z,90.90
2022-10-07T06:20:31.653Z,37.30
2022-10-07T06:21:31.634Z,30.50
2022-10-07T06:22:31.651Z,46.10
2022-10-07T06:23:31.625Z,37.00
2022-10-07T06:24:31.612Z,17.40
2022-10-07T06:25:31.605Z,32.70
2022-10-07T06:26:31.596Z,40.80
2022-10-07T06:27:31.607Z,73.10
2022-10-07T06:28:31.623Z,43.70
2022-10-07T06:29:31.561Z,67.60
2022-10-07T06:30:31.609Z,24.30
2022-10-07T06:31:31.550Z,34.80
2022-10-07T06:32:31.557Z,19.00
2022-10-07T06:33:31.521Z,35.30
2022-10-07T06:34:31.513Z,22.80
2022-10-07T06:35:31.513Z,18.70
2022-10-07T06:36:31.510Z,27.20
2022-10-07T06:37:31.530Z,14.80
2022-10-07T06:38:31.488Z,37.30
2022-10-07T06:39:31.480Z,15.90
2022-10-07T06:40:31.469Z,29.70
2022-10-07T06:41:31.452Z,22.70
2022-10-07T06:42:31.468Z,14.20
2022-10-07T06:43:31.442Z,14.40
2022-10-07T06:44:31.432Z,13.30
2022-10-07T06:45:31.416Z,16.20
2022-10-07T06:46:31.437Z,17.20
2022-10-07T06:47:31.421Z,17.20
2022-10-07T06:48:31.389Z,13.50
2022-10-07T06:49:31.370Z,17.80
2022-10-07T06:50:31.378Z,13.00
2022-10-07T06:51:31.358Z,11.90
2022-10-07T06:52:31.364Z,11.10
2022-10-07T06:53:31.327Z,12.40
2022-10-07T06:54:31.324Z,11.10
2022-10-07T06:55:31.317Z,12.50
2022-10-07T06:56:31.293Z,13.10
2022-10-07T06:57:45.227Z,12.40
2022-10-07T06:58:33.308Z,15.10
2022-10-07T06:59:31.270Z,20.80
2022-10-07T07:00:31.291Z,16.30
2022-10-07T07:01:31.310Z,16.30
2022-10-07T07:02:32.277Z,13.50
2022-10-07T07:03:31.243Z,13.70
2022-10-07T07:04:31.225Z,15.70
2022-10-07T07:05:31.212Z,10.80
2022-10-07T07:06:31.203Z,13.10
2022-10-07T07:07:31.211Z,11.70
2022-10-07T07:08:31.178Z,13.90
2022-10-07T07:09:31.171Z,12.40
2022-10-07T07:10:31.167Z,12.00
2022-10-07T07:11:31.229Z,14.00
2022-10-07T07:12:31.158Z,9.40
2022-10-07T07:13:31.139Z,10.90
2022-10-07T07:14:31.126Z,11.00
2022-10-07T07:15:31.113Z,9.90
2022-10-07T07:16:31.136Z,9.70
2022-10-07T07:17:31.114Z,8.50
2022-10-07T07:18:31.078Z,12.00
2022-10-07T07:19:31.066Z,12.20
2022-10-07T07:20:31.055Z,10.00
2022-10-07T07:21:31.052Z,11.50
2022-10-07T07:22:31.051Z,10.30
2022-10-07T07:23:31.027Z,12.20
2022-10-07T07:24:31.312Z,10.80
2022-10-07T07:25:30.993Z,8.50
2022-10-07T07:26:30.989Z,9.20
2022-10-07T07:27:31.045Z,10.10
2022-10-07T07:28:30.990Z,9.00
2022-10-07T07:29:30.952Z,8.10
2022-10-07T07:30:30.971Z,9.00
2022-10-07T07:31:30.945Z,10.70
2022-10-07T07:32:30.946Z,9.80
2022-10-07T07:33:30.916Z,11.20
2022-10-07T07:34:30.904Z,12.30
2022-10-07T07:35:30.887Z,11.40
2022-10-07T07:36:30.872Z,10.80
2022-10-07T07:37:30.879Z,10.40
2022-10-07T07:38:30.848Z,13.80
2022-10-07T07:39:30.847Z,13.90
2022-10-07T07:40:30.835Z,13.80
2022-10-07T07:41:30.817Z,10.10
2022-10-07T07:42:30.825Z,12.60
2022-10-07T07:43:30.807Z,13.80
2022-10-07T07:44:34.092Z,12.60
2022-10-07T07:45:31.772Z,12.40
2022-10-07T07:46:30.775Z,9.40
2022-10-07T07:47:30.777Z,12.20
2022-10-07T07:48:30.751Z,12.10
2022-10-07T07:49:30.739Z,13.10
2022-10-07T07:50:30.728Z,9.60
2022-10-07T07:51:30.720Z,11.50
2022-10-07T07:52:30.728Z,11.30
2022-10-07T07:53:30.696Z,9.70
2022-10-07T07:54:30.681Z,9.10
2022-10-07T07:55:30.679Z,11.70
2022-10-07T07:56:30.666Z,14.60
2022-10-07T07:57:30.680Z,13.00
2022-10-07T07:58:30.647Z,14.20
2022-10-07T07:59:30.638Z,13.00
2022-10-07T08:00:30.633Z,13.20
2022-10-07T08:01:30.641Z,11.40
2022-10-07T08:02:30.640Z,14.60
2022-10-07T08:03:30.598Z,8.80
2022-10-07T08:04:30.579Z,11.60
2022-10-07T08:05:30.567Z,13.30
2022-10-07T08:06:30.580Z,13.10
2022-10-07T08:07:30.580Z,12.60
2022-10-07T08:08:30.537Z,12.70
2022-10-07T08:09:30.531Z,12.30
2022-10-07T08:10:30.519Z,13.60
2022-10-07T08:11:30.506Z,10.20
2022-10-07T08:12:30.507Z,12.60
2022-10-07T08:13:30.491Z,12.80
2022-10-07T08:14:30.478Z,13.80
2022-10-07T08:15:30.547Z,10.90
2022-10-07T08:16:30.451Z,12.90
2022-10-07T08:17:30.495Z,14.40
2022-10-07T08:18:30.436Z,13.90
2022-10-07T08:19:30.422Z,13.80
2022-10-07T08:20:30.412Z,11.90
2022-10-07T08:21:30.400Z,13.10
2022-10-07T08:22:30.406Z,13.30
2022-10-07T08:23:30.418Z,15.10
2022-10-07T08:24:30.416Z,16.70
2022-10-07T08:25:30.361Z,11.70
2022-10-07T08:26:30.346Z,12.50
2022-10-07T08:27:30.354Z,13.20
2022-10-07T08:28:30.440Z,14.40
2022-10-07T08:29:30.321Z,9.30
2022-10-07T08:30:30.315Z,13.00
2022-10-07T08:31:30.309Z,11.50
2022-10-07T08:32:30.296Z,14.30
2022-10-07T08:33:30.310Z,10.90
2022-10-07T08:34:30.277Z,14.50
2022-10-07T08:35:30.263Z,10.80
2022-10-07T08:36:30.254Z,11.50
2022-10-07T08:37:30.244Z,14.50
2022-10-07T08:38:30.245Z,7.80
2022-10-07T08:39:30.229Z,15.20
2022-10-07T08:40:30.209Z,10.00
2022-10-07T08:41:30.214Z,12.50
2022-10-07T08:42:30.218Z,12.80
2022-10-07T08:43:30.206Z,12.40
2022-10-07T08:44:30.166Z,14.80
2022-10-07T08:45:30.179Z,12.30
2022-10-07T08:46:30.195Z,15.70
2022-10-07T08:47:30.206Z,10.20
2022-10-07T08:48:30.155Z,13.50
2022-10-07T08:49:30.133Z,13.50
2022-10-07T08:50:30.119Z,13.20
2022-10-07T08:51:30.111Z,12.80
2022-10-07T08:52:30.091Z,12.00
2022-10-07T08:53:30.110Z,12.90
2022-10-07T08:54:30.086Z,12.00
2022-10-07T08:55:30.075Z,11.30
2022-10-07T08:56:30.062Z,13.70
2022-10-07T08:57:30.065Z,15.90
2022-10-07T08:58:30.044Z,11.50
2022-10-07T08:59:30.038Z,10.00
2022-10-07T09:00:30.009Z,12.20
2022-10-07T09:01:30.050Z,11.50
2022-10-07T09:02:30.196Z,10.50
2022-10-07T09:03:30.000Z,12.80
2022-10-07T09:04:29.979Z,10.80
2022-10-07T09:05:29.982Z,10.10
2022-10-07T09:06:29.980Z,10.60
2022-10-07T09:07:30.976Z,11.20
2022-10-07T09:08:30.964Z,11.10
2022-10-07T09:09:29.985Z,20.10
2022-10-07T09:10:29.950Z,15.30
2022-10-07T09:11:29.923Z,13.80
2022-10-07T09:12:29.941Z,13.40
2022-10-07T09:13:29.905Z,8.30
2022-10-07T09:14:29.893Z,7.70
2022-10-07T09:15:29.928Z,9.60
2022-10-07T09:16:29.877Z,16.10
2022-10-07T09:17:34.837Z,12.40
2022-10-07T09:18:30.864Z,12.30
2022-10-07T09:19:29.857Z,10.10
2022-10-07T09:20:29.847Z,11.70
2022-10-07T09:21:29.833Z,11.00
2022-10-07T09:22:29.820Z,12.20
2022-10-07T09:23:29.827Z,11.70
2022-10-07T09:24:29.801Z,13.00
2022-10-07T09:25:29.788Z,10.50
2022-10-07T09:26:29.786Z,13.50
2022-10-07T09:27:29.770Z,14.60
2022-10-07T09:28:29.843Z,11.50
2022-10-07T09:29:29.744Z,9.10
2022-10-07T09:30:29.745Z,9.90
2022-10-07T09:31:29.807Z,13.20
2022-10-07T09:32:29.706Z,11.60
2022-10-07T09:33:29.750Z,8.70
2022-10-07T09:34:29.697Z,12.20
2022-10-07T09:35:29.688Z,13.00
2022-10-07T09:36:29.671Z,10.00
2022-10-07T09:37:29.666Z,12.80
2022-10-07T09:38:29.668Z,15.60
2022-10-07T09:39:29.651Z,9.90
2022-10-07T09:40:29.636Z,13.50
2022-10-07T09:41:31.243Z,11.80
2022-10-07T09:42:30.630Z,10.40
2022-10-07T09:43:29.604Z,10.70
2022-10-07T09:44:29.598Z,12.20
2022-10-07T09:45:29.589Z,10.70
2022-10-07T09:46:29.669Z,12.20
2022-10-07T09:47:29.578Z,13.20
2022-10-07T09:48:29.553Z,12.10
2022-10-07T09:49:29.544Z,10.50
2022-10-07T09:50:29.540Z,10.30
2022-10-07T09:51:29.526Z,12.20
2022-10-07T09:52:29.526Z,12.20
2022-10-07T09:53:29.514Z,14.20
2022-10-07T09:54:29.501Z,12.00
2022-10-07T09:55:29.486Z,12.30
2022-10-07T09:56:29.480Z,11.80
2022-10-07T09:57:29.488Z,10.80
2022-10-07T09:58:29.465Z,13.10
2022-10-07T09:59:29.470Z,8.90
2022-10-07T10:00:29.441Z,11.50
2022-10-07T10:01:29.428Z,8.40
2022-10-07T10:02:29.582Z,10.60
2022-10-07T10:03:29.477Z,9.60
2022-10-07T10:04:29.394Z,11.00
2022-10-07T10:05:29.401Z,15.30
2022-10-07T10:06:29.380Z,10.90
2022-10-07T10:07:29.403Z,8.40
2022-10-07T10:08:29.358Z,16.10
2022-10-07T10:09:29.361Z,11.40
2022-10-07T10:10:29.343Z,12.50
2022-10-07T10:11:29.335Z,11.60
2022-10-07T10:12:29.347Z,9.20
2022-10-07T10:13:29.315Z,13.20
2022-10-07T10:14:29.303Z,11.10
2022-10-07T10:15:29.292Z,11.20
2022-10-07T10:16:29.285Z,12.70
2022-10-07T10:17:29.298Z,12.00
2022-10-07T10:18:29.309Z,12.50
2022-10-07T10:19:32.468Z,16.40
2022-10-07T10:20:30.367Z,9.90
2022-10-07T10:21:29.256Z,8.40
2022-10-07T10:22:29.247Z,10.80
2022-10-07T10:23:29.360Z,9.50
2022-10-07T10:24:29.204Z,15.70
2022-10-07T10:25:29.198Z,8.60
2022-10-07T10:26:33.599Z,10.30
2022-10-07T10:27:31.191Z,10.00
2022-10-07T10:28:29.213Z,13.80
2022-10-07T10:29:29.158Z,11.60
2022-10-07T10:30:29.152Z,10.80
2022-10-07T10:31:29.189Z,13.70
2022-10-07T10:32:29.143Z,10.40
2022-10-07T10:33:29.113Z,10.90
2022-10-07T10:34:29.106Z,11.00
2022-10-07T10:35:29.092Z,12.00
2022-10-07T10:36:30.662Z,13.70
2022-10-07T10:37:29.102Z,10.80
2022-10-07T10:38:29.072Z,11.90
2022-10-07T10:39:29.050Z,11.10
2022-10-07T10:40:29.049Z,9.90
2022-10-07T10:41:29.050Z,10.20
2022-10-07T10:42:29.030Z,12.90
2022-10-07T10:43:29.019Z,10.10
2022-10-07T10:44:29.014Z,15.50
2022-10-07T10:45:28.992Z,8.80
2022-10-07T10:46:29.036Z,12.50
2022-10-07T10:47:28.977Z,12.20
2022-10-07T10:48:28.987Z,12.10
2022-10-07T10:49:28.962Z,11.50
2022-10-07T10:50:28.969Z,12.50
2022-10-07T10:51:28.937Z,15.40
2022-10-07T10:52:28.924Z,10.60
2022-10-07T10:53:28.934Z,10.20
2022-10-07T10:54:28.914Z,13.80
2022-10-07T10:55:28.890Z,13.90
2022-10-07T10:56:28.893Z,11.30
2022-10-07T10:57:28.878Z,10.00
2022-10-07T10:58:28.914Z,12.00
2022-10-07T10:59:28.851Z,9.60
2022-10-07T11:00:28.843Z,11.90
2022-10-07T11:01:28.880Z,8.20
2022-10-07T11:02:28.848Z,11.80
2022-10-07T11:03:28.836Z,12.90
2022-10-07T11:04:28.800Z,13.10
2022-10-07T11:05:28.795Z,10.70
2022-10-07T11:06:28.784Z,10.70
2022-10-07T11:07:28.780Z,13.10
2022-10-07T11:08:28.873Z,10.60
2022-10-07T11:09:30.691Z,11.10
2022-10-07T11:10:29.754Z,15.00
2022-10-07T11:11:28.736Z,15.10
2022-10-07T11:12:28.723Z,9.80
2022-10-07T11:13:28.739Z,13.50
2022-10-07T11:14:28.707Z,12.90
2022-10-07T11:15:28.700Z,11.00
2022-10-07T11:16:28.719Z,11.60
2022-10-07T11:17:28.687Z,11.70
2022-10-07T11:18:28.688Z,12.40
2022-10-07T11:19:28.661Z,12.10
2022-10-07T11:20:28.643Z,14.40
2022-10-07T11:21:28.638Z,11.70
2022-10-07T11:22:28.635Z,11.60
2022-10-07T11:23:28.642Z,10.00
2022-10-07T11:24:28.607Z,14.40
2022-10-07T11:25:28.599Z,10.70
2022-10-07T11:26:32.365Z,10.90
2022-10-07T11:27:29.586Z,14.20
2022-10-07T11:28:28.738Z,11.00
2022-10-07T11:29:28.560Z,13.60
2022-10-07T11:30:28.536Z,12.40
2022-10-07T11:31:28.582Z,12.80
2022-10-07T11:32:28.535Z,11.60
2022-10-07T11:33:28.545Z,12.50
2022-10-07T11:34:28.518Z,13.00
2022-10-07T11:35:28.499Z,12.10
2022-10-07T11:36:28.493Z,12.90
2022-10-07T11:37:28.480Z,14.50
2022-10-07T11:38:28.490Z,12.60
2022-10-07T11:39:28.468Z,12.40
2022-10-07T11:40:29.187Z,11.80
2022-10-07T11:41:29.442Z,14.50
2022-10-07T11:42:28.432Z,13.00
2022-10-07T11:43:28.438Z,13.00
2022-10-07T11:44:28.414Z,10.80
2022-10-07T11:45:28.401Z,14.20
2022-10-07T11:46:28.430Z,10.30
2022-10-07T11:47:28.388Z,12.00
2022-10-07T11:48:28.400Z,13.00
2022-10-07T11:49:28.369Z,13.30
2022-10-07T11:50:28.346Z,10.80
2022-10-07T11:51:28.342Z,10.20
2022-10-07T11:52:28.340Z,11.50
2022-10-07T11:53:28.384Z,11.50
2022-10-07T11:54:28.321Z,12.00
2022-10-07T11:55:28.369Z,10.20
2022-10-07T11:56:28.298Z,13.10
2022-10-07T11:57:28.305Z,14.70
2022-10-07T11:58:28.382Z,11.40
2022-10-07T11:59:28.266Z,11.00
2022-10-07T12:00:28.252Z,8.70
2022-10-07T12:01:28.249Z,14.10
2022-10-07T12:02:28.318Z,15.40
2022-10-07T12:03:28.364Z,12.80
2022-10-07T12:04:28.221Z,12.20
2022-10-07T12:05:28.206Z,13.70
2022-10-07T12:06:28.190Z,11.80
2022-10-07T12:07:28.213Z,11.20
2022-10-07T12:08:28.180Z,13.70
2022-10-07T12:09:28.179Z,10.20
2022-10-07T12:10:28.150Z,13.30
2022-10-07T12:11:28.163Z,12.30
2022-10-07T12:12:28.190Z,14.50
2022-10-07T12:13:28.162Z,11.20
2022-10-07T12:14:28.110Z,14.10
2022-10-07T12:15:28.109Z,11.50
2022-10-07T12:16:28.159Z,13.80
2022-10-07T12:17:28.099Z,11.90
2022-10-07T12:18:28.259Z,11.00
2022-10-07T12:19:28.074Z,10.50
2022-10-07T12:20:28.078Z,10.70
2022-10-07T12:21:28.063Z,12.60
2022-10-07T12:22:28.041Z,10.50
2022-10-07T12:23:28.055Z,9.60
2022-10-07T12:24:28.082Z,11.50
2022-10-07T12:25:28.013Z,10.90
2022-10-07T12:26:27.996Z,12.30
2022-10-07T12:27:27.994Z,9.50
2022-10-07T12:28:28.211Z,11.60
2022-10-07T12:29:27.968Z,11.60
2022-10-07T12:30:27.978Z,12.40
2022-10-07T12:31:27.979Z,16.00
2022-10-07T12:32:27.942Z,11.40
2022-10-07T12:33:27.950Z,14.60
2022-10-07T12:34:27.955Z,10.60
2022-10-07T12:35:27.918Z,12.70
2022-10-07T12:36:27.917Z,10.40
2022-10-07T12:37:27.896Z,11.50
2022-10-07T12:38:27.911Z,11.40
2022-10-07T12:39:27.876Z,11.50
2022-10-07T12:40:27.870Z,11.30
2022-10-07T12:41:27.875Z,10.30
2022-10-07T12:42:27.843Z,11.10
2022-10-07T12:43:28.014Z,12.10
2022-10-07T12:44:27.930Z,12.40
2022-10-07T12:45:27.836Z,13.40
2022-10-07T12:46:27.794Z,12.90
2022-10-07T12:47:27.791Z,12.50
2022-10-07T12:48:27.884Z,13.30
2022-10-07T12:49:27.771Z,12.90
2022-10-07T12:50:27.757Z,9.30
2022-10-07T12:51:27.752Z,12.90